Guthrie, North Carolina
Current Conditions -  °F | °C
As of 7:54 AM on Friday 19 Dec 2014 (Local Time) from KGSO Reporting Station
Scattered Clouds Scattered Clouds  
Wind Chill: 38°   Ceiling: Unl
Heat Index: 38°   Visibility: 10mi
Dew Point: 20°   Wind: 3mph
Humidity: 48%   Direction: 360°N
Pressure: 30.14"   Gusts: NA
Location:  36.1188°N, 80.075°W
Report Text: KGSO 191254Z 36003KT 10SM FEW065 SCT250 03/M07 A3014 RMK AO2 SLP211 T00331067
Loading
Personal Weather Stations






























Interactive Weather Map New forecast layout! Learn more

10-Day Weather Forecast

Advertisements
Track Severe Weather on mobile